sensor_id;sensor_type;location;lat;lon;timestamp;P1;durP1;ratioP1;P2;durP2;ratioP2
80111;SDS011;69421;51.062;3.728;2023-10-31T00:00:15;34.30;;;19.02;;
80111;SDS011;69421;51.062;3.728;2023-10-31T00:02:41;28.80;;;17.73;;
80111;SDS011;69421;51.062;3.728;2023-10-31T00:05:06;30.58;;;16.95;;
80111;SDS011;69421;51.062;3.728;2023-10-31T00:07:32;29.40;;;17.92;;
80111;SDS011;69421;51.062;3.728;2023-10-31T00:09:58;32.80;;;18.02;;
80111;SDS011;69421;51.062;3.728;2023-10-31T00:12:23;31.27;;;18.70;;
80111;SDS011;69421;51.062;3.728;2023-10-31T00:14:49;32.25;;;18.15;;
80111;SDS011;69421;51.062;3.728;2023-10-31T00:17:15;32.50;;;19.05;;
80111;SDS011;69421;51.062;3.728;2023-10-31T00:19:40;32.28;;;18.27;;
80111;SDS011;69421;51.062;3.728;2023-10-31T00:22:06;30.05;;;19.20;;
80111;SDS011;69421;51.062;3.728;2023-10-31T00:24:31;29.27;;;18.40;;
80111;SDS011;69421;51.062;3.728;2023-10-31T00:26:57;29.40;;;16.40;;
80111;SDS011;69421;51.062;3.728;2023-10-31T00:29:23;29.88;;;19.08;;
80111;SDS011;69421;51.062;3.728;2023-10-31T00:31:49;24.73;;;17.30;;
80111;SDS011;69421;51.062;3.728;2023-10-31T00:34:15;26.25;;;16.10;;
80111;SDS011;69421;51.062;3.728;2023-10-31T00:36:40;26.20;;;15.23;;
80111;SDS011;69421;51.062;3.728;2023-10-31T00:39:06;25.50;;;15.10;;
80111;SDS011;69421;51.062;3.728;2023-10-31T00:41:32;22.52;;;13.40;;
80111;SDS011;69421;51.062;3.728;2023-10-31T00:43:57;21.95;;;14.57;;
80111;SDS011;69421;51.062;3.728;2023-10-31T00:46:23;20.70;;;12.85;;
80111;SDS011;69421;51.062;3.728;2023-10-31T00:48:49;23.27;;;12.68;;
80111;SDS011;69421;51.062;3.728;2023-10-31T00:51:15;19.17;;;12.48;;
80111;SDS011;69421;51.062;3.728;2023-10-31T00:53:40;25.00;;;11.63;;
80111;SDS011;69421;51.062;3.728;2023-10-31T00:56:07;22.38;;;11.48;;
80111;SDS011;69421;51.062;3.728;2023-10-31T00:58:32;19.13;;;11.13;;
80111;SDS011;69421;51.062;3.728;2023-10-31T01:00:58;16.75;;;9.98;;
80111;SDS011;69421;51.062;3.728;2023-10-31T01:03:24;16.35;;;9.93;;
80111;SDS011;69421;51.062;3.728;2023-10-31T01:05:49;19.15;;;10.10;;
80111;SDS011;69421;51.062;3.728;2023-10-31T01:08:15;15.18;;;9.77;;
80111;SDS011;69421;51.062;3.728;2023-10-31T01:10:41;14.63;;;9.25;;
80111;SDS011;69421;51.062;3.728;2023-10-31T01:13:06;15.85;;;10.63;;
80111;SDS011;69421;51.062;3.728;2023-10-31T01:15:32;14.77;;;9.55;;
80111;SDS011;69421;51.062;3.728;2023-10-31T01:17:57;16.80;;;10.80;;
80111;SDS011;69421;51.062;3.728;2023-10-31T01:20:23;15.98;;;9.45;;
80111;SDS011;69421;51.062;3.728;2023-10-31T01:22:49;18.15;;;11.23;;
80111;SDS011;69421;51.062;3.728;2023-10-31T01:25:15;17.10;;;10.48;;
80111;SDS011;69421;51.062;3.728;2023-10-31T01:27:40;17.20;;;10.43;;
80111;SDS011;69421;51.062;3.728;2023-10-31T01:30:08;18.17;;;11.13;;
80111;SDS011;69421;51.062;3.728;2023-10-31T01:32:34;21.13;;;10.93;;
80111;SDS011;69421;51.062;3.728;2023-10-31T01:34:59;21.63;;;12.20;;
80111;SDS011;69421;51.062;3.728;2023-10-31T01:37:25;21.15;;;12.52;;
80111;SDS011;69421;51.062;3.728;2023-10-31T01:39:51;21.52;;;12.13;;
80111;SDS011;69421;51.062;3.728;2023-10-31T01:42:18;17.63;;;10.10;;
80111;SDS011;69421;51.062;3.728;2023-10-31T01:44:43;17.83;;;10.85;;
80111;SDS011;69421;51.062;3.728;2023-10-31T01:47:09;17.90;;;10.57;;
80111;SDS011;69421;51.062;3.728;2023-10-31T01:49:35;16.60;;;10.38;;
80111;SDS011;69421;51.062;3.728;2023-10-31T01:52:01;15.65;;;9.35;;
80111;SDS011;69421;51.062;3.728;2023-10-31T01:54:28;18.25;;;11.15;;
80111;SDS011;69421;51.062;3.728;2023-10-31T01:56:55;17.27;;;11.20;;
80111;SDS011;69421;51.062;3.728;2023-10-31T01:59:23;17.98;;;9.80;;
80111;SDS011;69421;51.062;3.728;2023-10-31T02:01:51;15.73;;;10.40;;
80111;SDS011;69421;51.062;3.728;2023-10-31T02:04:17;16.30;;;9.57;;
80111;SDS011;69421;51.062;3.728;2023-10-31T02:06:42;14.95;;;9.82;;
80111;SDS011;69421;51.062;3.728;2023-10-31T02:09:08;15.45;;;9.65;;
80111;SDS011;69421;51.062;3.728;2023-10-31T02:11:33;15.05;;;8.75;;
80111;SDS011;69421;51.062;3.728;2023-10-31T02:14:00;14.00;;;8.48;;
80111;SDS011;69421;51.062;3.728;2023-10-31T02:16:26;13.38;;;8.45;;
80111;SDS011;69421;51.062;3.728;2023-10-31T02:18:52;13.45;;;7.45;;
80111;SDS011;69421;51.062;3.728;2023-10-31T02:21:19;12.13;;;7.40;;
80111;SDS011;69421;51.062;3.728;2023-10-31T02:24:01;10.90;;;7.30;;
80111;SDS011;69421;51.062;3.728;2023-10-31T02:26:28;11.40;;;7.32;;
80111;SDS011;69421;51.062;3.728;2023-10-31T02:28:55;8.15;;;5.47;;
80111;SDS011;69421;51.062;3.728;2023-10-31T02:31:20;10.43;;;6.35;;
80111;SDS011;69421;51.062;3.728;2023-10-31T02:33:46;8.05;;;5.05;;
80111;SDS011;69421;51.062;3.728;2023-10-31T02:36:11;9.07;;;4.10;;
80111;SDS011;69421;51.062;3.728;2023-10-31T02:38:37;8.23;;;5.13;;
80111;SDS011;69421;51.062;3.728;2023-10-31T02:41:03;10.25;;;4.53;;
80111;SDS011;69421;51.062;3.728;2023-10-31T02:43:29;6.90;;;4.18;;
80111;SDS011;69421;51.062;3.728;2023-10-31T02:45:54;8.23;;;4.85;;
80111;SDS011;69421;51.062;3.728;2023-10-31T02:48:20;5.53;;;3.90;;
80111;SDS011;69421;51.062;3.728;2023-10-31T02:50:45;6.15;;;4.05;;
80111;SDS011;69421;51.062;3.728;2023-10-31T02:53:11;5.68;;;3.83;;
80111;SDS011;69421;51.062;3.728;2023-10-31T02:55:36;5.30;;;3.90;;
80111;SDS011;69421;51.062;3.728;2023-10-31T02:58:02;7.88;;;4.07;;
80111;SDS011;69421;51.062;3.728;2023-10-31T03:00:28;6.78;;;2.90;;
80111;SDS011;69421;51.062;3.728;2023-10-31T03:02:53;8.18;;;3.45;;
80111;SDS011;69421;51.062;3.728;2023-10-31T03:05:19;5.35;;;2.70;;
80111;SDS011;69421;51.062;3.728;2023-10-31T03:07:45;3.75;;;2.45;;
80111;SDS011;69421;51.062;3.728;2023-10-31T03:10:10;3.45;;;3.15;;
80111;SDS011;69421;51.062;3.728;2023-10-31T03:12:36;4.15;;;2.70;;
80111;SDS011;69421;51.062;3.728;2023-10-31T03:15:02;7.35;;;2.95;;
80111;SDS011;69421;51.062;3.728;2023-10-31T03:17:31;5.22;;;2.80;;
80111;SDS011;69421;51.062;3.728;2023-10-31T03:19:57;6.68;;;3.00;;
80111;SDS011;69421;51.062;3.728;2023-10-31T03:22:22;4.88;;;3.03;;
80111;SDS011;69421;51.062;3.728;2023-10-31T03:24:49;6.20;;;3.28;;
80111;SDS011;69421;51.062;3.728;2023-10-31T03:27:14;4.88;;;3.03;;
80111;SDS011;69421;51.062;3.728;2023-10-31T03:29:40;6.03;;;4.22;;
80111;SDS011;69421;51.062;3.728;2023-10-31T03:32:05;5.55;;;3.47;;
80111;SDS011;69421;51.062;3.728;2023-10-31T03:34:31;5.22;;;3.65;;
80111;SDS011;69421;51.062;3.728;2023-10-31T03:36:57;7.22;;;3.40;;
80111;SDS011;69421;51.062;3.728;2023-10-31T03:39:23;4.95;;;3.35;;
80111;SDS011;69421;51.062;3.728;2023-10-31T03:41:48;5.78;;;3.60;;
80111;SDS011;69421;51.062;3.728;2023-10-31T03:44:14;5.93;;;3.88;;
80111;SDS011;69421;51.062;3.728;2023-10-31T03:46:39;5.03;;;3.70;;
80111;SDS011;69421;51.062;3.728;2023-10-31T03:49:05;9.18;;;3.55;;
80111;SDS011;69421;51.062;3.728;2023-10-31T03:51:32;6.00;;;3.65;;
80111;SDS011;69421;51.062;3.728;2023-10-31T03:53:59;6.95;;;3.90;;
80111;SDS011;69421;51.062;3.728;2023-10-31T03:56:25;6.15;;;4.22;;
80111;SDS011;69421;51.062;3.728;2023-10-31T03:58:50;7.10;;;4.68;;
80111;SDS011;69421;51.062;3.728;2023-10-31T04:01:16;7.32;;;4.65;;
80111;SDS011;69421;51.062;3.728;2023-10-31T04:03:41;7.13;;;4.90;;
80111;SDS011;69421;51.062;3.728;2023-10-31T04:06:07;8.88;;;4.38;;
80111;SDS011;69421;51.062;3.728;2023-10-31T04:08:33;9.25;;;5.53;;
80111;SDS011;69421;51.062;3.728;2023-10-31T04:10:59;8.10;;;4.82;;
80111;SDS011;69421;51.062;3.728;2023-10-31T04:13:24;10.00;;;4.95;;
80111;SDS011;69421;51.062;3.728;2023-10-31T04:15:50;10.82;;;5.63;;
80111;SDS011;69421;51.062;3.728;2023-10-31T04:18:16;9.63;;;5.88;;
80111;SDS011;69421;51.062;3.728;2023-10-31T04:20:42;10.32;;;5.28;;
80111;SDS011;69421;51.062;3.728;2023-10-31T04:23:08;8.98;;;6.65;;
80111;SDS011;69421;51.062;3.728;2023-10-31T04:25:34;12.02;;;6.45;;
80111;SDS011;69421;51.062;3.728;2023-10-31T04:28:00;11.18;;;6.43;;
80111;SDS011;69421;51.062;3.728;2023-10-31T04:30:25;8.43;;;5.13;;
80111;SDS011;69421;51.062;3.728;2023-10-31T04:32:52;10.30;;;5.80;;
80111;SDS011;69421;51.062;3.728;2023-10-31T04:35:18;10.48;;;6.13;;
80111;SDS011;69421;51.062;3.728;2023-10-31T04:37:44;10.45;;;5.75;;
80111;SDS011;69421;51.062;3.728;2023-10-31T04:40:09;10.23;;;6.55;;
80111;SDS011;69421;51.062;3.728;2023-10-31T04:42:35;12.20;;;6.85;;
80111;SDS011;69421;51.062;3.728;2023-10-31T04:45:03;11.70;;;7.40;;
80111;SDS011;69421;51.062;3.728;2023-10-31T04:47:29;11.93;;;6.78;;
80111;SDS011;69421;51.062;3.728;2023-10-31T04:49:55;12.85;;;7.18;;
80111;SDS011;69421;51.062;3.728;2023-10-31T04:52:21;12.73;;;8.43;;
80111;SDS011;69421;51.062;3.728;2023-10-31T04:54:47;10.45;;;7.13;;
80111;SDS011;69421;51.062;3.728;2023-10-31T04:57:13;15.00;;;7.50;;
80111;SDS011;69421;51.062;3.728;2023-10-31T04:59:39;15.13;;;8.20;;
80111;SDS011;69421;51.062;3.728;2023-10-31T05:02:04;16.55;;;9.05;;
80111;SDS011;69421;51.062;3.728;2023-10-31T05:04:30;15.18;;;8.70;;
80111;SDS011;69421;51.062;3.728;2023-10-31T05:06:55;16.15;;;9.10;;
80111;SDS011;69421;51.062;3.728;2023-10-31T05:09:21;20.50;;;9.25;;
80111;SDS011;69421;51.062;3.728;2023-10-31T05:11:48;18.70;;;9.63;;
80111;SDS011;69421;51.062;3.728;2023-10-31T05:14:14;16.75;;;9.77;;
80111;SDS011;69421;51.062;3.728;2023-10-31T05:16:42;22.98;;;10.85;;
80111;SDS011;69421;51.062;3.728;2023-10-31T05:19:08;22.23;;;11.48;;
80111;SDS011;69421;51.062;3.728;2023-10-31T05:21:34;22.50;;;11.55;;
80111;SDS011;69421;51.062;3.728;2023-10-31T05:24:00;19.90;;;11.45;;
80111;SDS011;69421;51.062;3.728;2023-10-31T05:26:25;21.55;;;10.95;;
80111;SDS011;69421;51.062;3.728;2023-10-31T05:28:52;22.00;;;10.73;;
80111;SDS011;69421;51.062;3.728;2023-10-31T05:31:18;24.13;;;11.63;;
80111;SDS011;69421;51.062;3.728;2023-10-31T05:33:44;25.75;;;12.32;;
80111;SDS011;69421;51.062;3.728;2023-10-31T05:36:20;24.88;;;12.63;;
80111;SDS011;69421;51.062;3.728;2023-10-31T05:38:50;25.67;;;13.23;;
80111;SDS011;69421;51.062;3.728;2023-10-31T05:41:15;22.83;;;12.75;;
80111;SDS011;69421;51.062;3.728;2023-10-31T05:43:41;26.20;;;12.80;;
80111;SDS011;69421;51.062;3.728;2023-10-31T05:46:07;28.90;;;14.23;;
80111;SDS011;69421;51.062;3.728;2023-10-31T05:48:37;25.48;;;12.90;;
80111;SDS011;69421;51.062;3.728;2023-10-31T05:51:04;25.80;;;13.43;;
80111;SDS011;69421;51.062;3.728;2023-10-31T05:53:30;32.55;;;14.20;;
80111;SDS011;69421;51.062;3.728;2023-10-31T05:55:58;38.15;;;16.13;;
80111;SDS011;69421;51.062;3.728;2023-10-31T05:58:24;32.75;;;15.15;;
80111;SDS011;69421;51.062;3.728;2023-10-31T06:00:49;31.47;;;15.77;;
80111;SDS011;69421;51.062;3.728;2023-10-31T06:03:15;31.55;;;14.88;;
80111;SDS011;69421;51.062;3.728;2023-10-31T06:05:40;32.70;;;15.07;;
80111;SDS011;69421;51.062;3.728;2023-10-31T06:08:06;32.93;;;15.20;;
80111;SDS011;69421;51.062;3.728;2023-10-31T06:10:32;38.97;;;15.13;;
80111;SDS011;69421;51.062;3.728;2023-10-31T06:12:57;37.45;;;17.25;;
80111;SDS011;69421;51.062;3.728;2023-10-31T06:15:23;34.47;;;16.23;;
80111;SDS011;69421;51.062;3.728;2023-10-31T06:17:48;35.83;;;16.35;;
80111;SDS011;69421;51.062;3.728;2023-10-31T06:20:14;40.38;;;17.23;;
80111;SDS011;69421;51.062;3.728;2023-10-31T06:22:40;36.33;;;16.15;;
80111;SDS011;69421;51.062;3.728;2023-10-31T06:25:05;35.58;;;17.40;;
80111;SDS011;69421;51.062;3.728;2023-10-31T06:27:31;38.78;;;17.27;;
80111;SDS011;69421;51.062;3.728;2023-10-31T06:29:57;40.17;;;18.13;;
80111;SDS011;69421;51.062;3.728;2023-10-31T06:32:22;39.75;;;17.98;;
80111;SDS011;69421;51.062;3.728;2023-10-31T06:34:48;35.80;;;16.70;;
80111;SDS011;69421;51.062;3.728;2023-10-31T06:37:13;41.80;;;17.13;;
80111;SDS011;69421;51.062;3.728;2023-10-31T06:39:39;32.38;;;15.57;;
80111;SDS011;69421;51.062;3.728;2023-10-31T06:42:05;33.78;;;16.40;;
80111;SDS011;69421;51.062;3.728;2023-10-31T06:44:30;33.70;;;16.33;;
80111;SDS011;69421;51.062;3.728;2023-10-31T06:46:56;31.85;;;16.83;;
80111;SDS011;69421;51.062;3.728;2023-10-31T06:49:21;33.17;;;15.75;;
80111;SDS011;69421;51.062;3.728;2023-10-31T06:51:49;31.48;;;15.48;;
80111;SDS011;69421;51.062;3.728;2023-10-31T06:54:14;34.45;;;13.80;;
80111;SDS011;69421;51.062;3.728;2023-10-31T06:56:40;30.20;;;14.90;;
80111;SDS011;69421;51.062;3.728;2023-10-31T06:59:05;28.13;;;14.10;;
80111;SDS011;69421;51.062;3.728;2023-10-31T07:01:31;27.35;;;14.07;;
80111;SDS011;69421;51.062;3.728;2023-10-31T07:03:57;26.77;;;13.73;;
80111;SDS011;69421;51.062;3.728;2023-10-31T07:06:22;27.95;;;13.82;;
80111;SDS011;69421;51.062;3.728;2023-10-31T07:08:48;29.88;;;14.10;;
80111;SDS011;69421;51.062;3.728;2023-10-31T07:11:14;24.92;;;13.52;;
80111;SDS011;69421;51.062;3.728;2023-10-31T07:13:39;25.07;;;14.07;;
80111;SDS011;69421;51.062;3.728;2023-10-31T07:16:05;23.38;;;13.10;;
80111;SDS011;69421;51.062;3.728;2023-10-31T07:18:31;26.50;;;13.18;;
80111;SDS011;69421;51.062;3.728;2023-10-31T07:20:56;25.55;;;14.43;;
80111;SDS011;69421;51.062;3.728;2023-10-31T07:23:23;24.77;;;13.32;;
80111;SDS011;69421;51.062;3.728;2023-10-31T07:25:48;24.90;;;14.15;;
80111;SDS011;69421;51.062;3.728;2023-10-31T07:28:14;25.02;;;14.27;;
80111;SDS011;69421;51.062;3.728;2023-10-31T07:30:40;22.08;;;13.02;;
80111;SDS011;69421;51.062;3.728;2023-10-31T07:33:05;27.58;;;14.88;;
80111;SDS011;69421;51.062;3.728;2023-10-31T07:35:31;26.70;;;15.80;;
80111;SDS011;69421;51.062;3.728;2023-10-31T07:37:57;29.00;;;15.05;;
80111;SDS011;69421;51.062;3.728;2023-10-31T07:40:22;26.73;;;15.20;;
80111;SDS011;69421;51.062;3.728;2023-10-31T07:42:48;27.70;;;15.02;;
80111;SDS011;69421;51.062;3.728;2023-10-31T07:45:14;24.27;;;13.75;;
80111;SDS011;69421;51.062;3.728;2023-10-31T07:47:40;23.98;;;14.10;;
80111;SDS011;69421;51.062;3.728;2023-10-31T07:50:05;25.85;;;14.63;;
80111;SDS011;69421;51.062;3.728;2023-10-31T07:52:31;22.55;;;13.10;;
80111;SDS011;69421;51.062;3.728;2023-10-31T07:54:57;23.33;;;13.63;;
80111;SDS011;69421;51.062;3.728;2023-10-31T07:57:22;23.17;;;15.25;;
80111;SDS011;69421;51.062;3.728;2023-10-31T07:59:48;23.65;;;14.00;;
80111;SDS011;69421;51.062;3.728;2023-10-31T08:02:13;28.42;;;14.57;;
80111;SDS011;69421;51.062;3.728;2023-10-31T08:04:39;21.20;;;14.43;;
80111;SDS011;69421;51.062;3.728;2023-10-31T08:07:05;23.65;;;13.38;;
80111;SDS011;69421;51.062;3.728;2023-10-31T08:09:30;20.33;;;13.02;;
80111;SDS011;69421;51.062;3.728;2023-10-31T08:11:56;19.80;;;12.75;;
80111;SDS011;69421;51.062;3.728;2023-10-31T08:14:22;23.73;;;13.50;;
80111;SDS011;69421;51.062;3.728;2023-10-31T08:16:47;20.67;;;12.55;;
80111;SDS011;69421;51.062;3.728;2023-10-31T08:19:13;20.52;;;11.40;;
80111;SDS011;69421;51.062;3.728;2023-10-31T08:21:39;15.13;;;10.35;;
80111;SDS011;69421;51.062;3.728;2023-10-31T08:24:05;17.23;;;11.02;;
80111;SDS011;69421;51.062;3.728;2023-10-31T08:26:31;15.40;;;10.38;;
80111;SDS011;69421;51.062;3.728;2023-10-31T08:28:57;16.70;;;10.55;;
80111;SDS011;69421;51.062;3.728;2023-10-31T08:31:23;16.80;;;10.23;;
80111;SDS011;69421;51.062;3.728;2023-10-31T08:33:49;15.63;;;9.25;;
80111;SDS011;69421;51.062;3.728;2023-10-31T08:36:15;12.48;;;8.95;;
80111;SDS011;69421;51.062;3.728;2023-10-31T08:38:41;13.55;;;9.18;;
80111;SDS011;69421;51.062;3.728;2023-10-31T08:41:06;11.70;;;8.30;;
80111;SDS011;69421;51.062;3.728;2023-10-31T08:43:32;11.30;;;8.20;;
80111;SDS011;69421;51.062;3.728;2023-10-31T08:45:58;11.10;;;7.20;;
80111;SDS011;69421;51.062;3.728;2023-10-31T08:48:23;11.30;;;7.97;;
80111;SDS011;69421;51.062;3.728;2023-10-31T08:50:50;11.77;;;7.85;;
80111;SDS011;69421;51.062;3.728;2023-10-31T08:53:16;10.60;;;6.88;;
80111;SDS011;69421;51.062;3.728;2023-10-31T08:55:44;8.68;;;7.10;;
80111;SDS011;69421;51.062;3.728;2023-10-31T08:58:12;8.98;;;7.95;;
80111;SDS011;69421;51.062;3.728;2023-10-31T09:00:38;9.20;;;6.43;;
80111;SDS011;69421;51.062;3.728;2023-10-31T09:03:06;7.68;;;5.25;;
80111;SDS011;69421;51.062;3.728;2023-10-31T09:05:32;7.93;;;5.45;;
80111;SDS011;69421;51.062;3.728;2023-10-31T09:07:57;11.95;;;5.60;;
80111;SDS011;69421;51.062;3.728;2023-10-31T09:10:23;10.02;;;6.22;;
80111;SDS011;69421;51.062;3.728;2023-10-31T09:12:49;12.02;;;7.97;;
80111;SDS011;69421;51.062;3.728;2023-10-31T09:15:14;11.15;;;7.07;;
80111;SDS011;69421;51.062;3.728;2023-10-31T09:17:40;11.27;;;7.97;;
80111;SDS011;69421;51.062;3.728;2023-10-31T09:20:06;9.70;;;8.35;;
80111;SDS011;69421;51.062;3.728;2023-10-31T09:22:33;12.45;;;7.95;;
80111;SDS011;69421;51.062;3.728;2023-10-31T09:24:59;9.70;;;6.72;;
80111;SDS011;69421;51.062;3.728;2023-10-31T09:27:24;9.68;;;7.60;;
80111;SDS011;69421;51.062;3.728;2023-10-31T09:29:50;10.88;;;6.47;;
80111;SDS011;69421;51.062;3.728;2023-10-31T09:32:17;14.63;;;8.75;;
80111;SDS011;69421;51.062;3.728;2023-10-31T09:34:43;10.40;;;7.63;;
80111;SDS011;69421;51.062;3.728;2023-10-31T09:37:09;9.35;;;7.50;;
80111;SDS011;69421;51.062;3.728;2023-10-31T09:39:35;8.80;;;7.28;;
80111;SDS011;69421;51.062;3.728;2023-10-31T09:42:00;13.80;;;6.55;;
80111;SDS011;69421;51.062;3.728;2023-10-31T09:44:26;14.57;;;8.30;;
80111;SDS011;69421;51.062;3.728;2023-10-31T09:46:52;10.25;;;7.50;;
80111;SDS011;69421;51.062;3.728;2023-10-31T09:49:18;12.90;;;6.95;;
80111;SDS011;69421;51.062;3.728;2023-10-31T09:51:44;8.85;;;6.80;;
80111;SDS011;69421;51.062;3.728;2023-10-31T09:54:12;10.48;;;6.95;;
80111;SDS011;69421;51.062;3.728;2023-10-31T09:56:40;11.95;;;7.60;;
80111;SDS011;69421;51.062;3.728;2023-10-31T09:59:07;9.13;;;6.38;;
80111;SDS011;69421;51.062;3.728;2023-10-31T10:01:32;11.75;;;6.80;;
80111;SDS011;69421;51.062;3.728;2023-10-31T10:03:58;7.28;;;5.88;;
80111;SDS011;69421;51.062;3.728;2023-10-31T10:06:24;64.55;;;41.47;;
80111;SDS011;69421;51.062;3.728;2023-10-31T10:08:50;56.17;;;48.72;;
80111;SDS011;69421;51.062;3.728;2023-10-31T10:11:16;74.93;;;46.72;;
80111;SDS011;69421;51.062;3.728;2023-10-31T10:13:42;177.27;;;112.05;;
80111;SDS011;69421;51.062;3.728;2023-10-31T10:16:08;30.67;;;26.90;;
80111;SDS011;69421;51.062;3.728;2023-10-31T10:18:35;11.73;;;10.20;;
80111;SDS011;69421;51.062;3.728;2023-10-31T10:21:05;10.95;;;7.47;;
80111;SDS011;69421;51.062;3.728;2023-10-31T10:23:32;10.20;;;7.43;;
80111;SDS011;69421;51.062;3.728;2023-10-31T10:25:58;8.57;;;6.35;;
80111;SDS011;69421;51.062;3.728;2023-10-31T10:28:25;14.48;;;8.02;;
80111;SDS011;69421;51.062;3.728;2023-10-31T10:30:52;11.10;;;9.18;;
80111;SDS011;69421;51.062;3.728;2023-10-31T10:33:18;10.05;;;5.95;;
80111;SDS011;69421;51.062;3.728;2023-10-31T10:35:45;15.63;;;9.68;;
80111;SDS011;69421;51.062;3.728;2023-10-31T10:38:12;11.77;;;8.05;;
80111;SDS011;69421;51.062;3.728;2023-10-31T10:40:41;17.90;;;10.32;;
80111;SDS011;69421;51.062;3.728;2023-10-31T10:43:11;13.85;;;6.80;;
80111;SDS011;69421;51.062;3.728;2023-10-31T10:45:39;9.63;;;6.97;;
80111;SDS011;69421;51.062;3.728;2023-10-31T10:48:08;19.63;;;9.40;;
80111;SDS011;69421;51.062;3.728;2023-10-31T10:50:38;14.02;;;8.82;;
80111;SDS011;69421;51.062;3.728;2023-10-31T10:53:25;15.77;;;9.10;;
80111;SDS011;69421;51.062;3.728;2023-10-31T10:56:03;16.95;;;9.45;;
80111;SDS011;69421;51.062;3.728;2023-10-31T10:58:55;10.68;;;6.97;;
80111;SDS011;69421;51.062;3.728;2023-10-31T11:01:33;15.85;;;10.38;;
80111;SDS011;69421;51.062;3.728;2023-10-31T11:04:01;16.63;;;11.57;;
80111;SDS011;69421;51.062;3.728;2023-10-31T11:06:27;19.65;;;12.13;;
80111;SDS011;69421;51.062;3.728;2023-10-31T11:08:54;13.63;;;9.10;;
80111;SDS011;69421;51.062;3.728;2023-10-31T11:11:20;21.25;;;12.32;;
80111;SDS011;69421;51.062;3.728;2023-10-31T11:13:46;13.95;;;9.88;;
80111;SDS011;69421;51.062;3.728;2023-10-31T11:16:21;13.98;;;7.63;;
80111;SDS011;69421;51.062;3.728;2023-10-31T11:18:50;14.90;;;10.60;;
80111;SDS011;69421;51.062;3.728;2023-10-31T11:21:16;16.95;;;9.13;;
80111;SDS011;69421;51.062;3.728;2023-10-31T11:23:41;21.45;;;12.32;;
80111;SDS011;69421;51.062;3.728;2023-10-31T11:26:07;14.43;;;8.45;;
80111;SDS011;69421;51.062;3.728;2023-10-31T11:28:35;14.70;;;8.25;;
80111;SDS011;69421;51.062;3.728;2023-10-31T11:31:01;13.48;;;8.07;;
80111;SDS011;69421;51.062;3.728;2023-10-31T11:33:28;32.28;;;20.30;;
80111;SDS011;69421;51.062;3.728;2023-10-31T11:36:00;30.25;;;21.17;;
80111;SDS011;69421;51.062;3.728;2023-10-31T11:38:35;19.58;;;13.15;;
80111;SDS011;69421;51.062;3.728;2023-10-31T11:41:02;12.93;;;7.65;;
80111;SDS011;69421;51.062;3.728;2023-10-31T11:43:36;14.85;;;8.75;;
80111;SDS011;69421;51.062;3.728;2023-10-31T11:46:22;12.55;;;7.78;;
80111;SDS011;69421;51.062;3.728;2023-10-31T11:48:52;17.35;;;10.43;;
80111;SDS011;69421;51.062;3.728;2023-10-31T11:51:19;20.45;;;12.73;;
80111;SDS011;69421;51.062;3.728;2023-10-31T11:53:45;16.50;;;9.35;;
80111;SDS011;69421;51.062;3.728;2023-10-31T11:56:11;15.60;;;8.18;;
80111;SDS011;69421;51.062;3.728;2023-10-31T11:58:37;17.08;;;9.57;;
80111;SDS011;69421;51.062;3.728;2023-10-31T12:01:03;20.65;;;12.30;;
80111;SDS011;69421;51.062;3.728;2023-10-31T12:03:37;13.73;;;8.77;;
80111;SDS011;69421;51.062;3.728;2023-10-31T12:06:04;15.32;;;8.77;;
80111;SDS011;69421;51.062;3.728;2023-10-31T12:08:31;21.38;;;14.50;;
80111;SDS011;69421;51.062;3.728;2023-10-31T12:11:14;18.63;;;11.02;;
80111;SDS011;69421;51.062;3.728;2023-10-31T12:13:55;16.15;;;9.40;;
80111;SDS011;69421;51.062;3.728;2023-10-31T12:16:23;17.08;;;12.70;;
80111;SDS011;69421;51.062;3.728;2023-10-31T12:18:54;17.80;;;8.57;;
80111;SDS011;69421;51.062;3.728;2023-10-31T12:21:33;22.40;;;14.18;;
80111;SDS011;69421;51.062;3.728;2023-10-31T12:24:12;26.23;;;17.58;;
80111;SDS011;69421;51.062;3.728;2023-10-31T12:26:38;13.75;;;7.90;;
80111;SDS011;69421;51.062;3.728;2023-10-31T12:31:50;17.65;;;10.75;;
80111;SDS011;69421;51.062;3.728;2023-10-31T12:34:23;19.05;;;13.40;;
80111;SDS011;69421;51.062;3.728;2023-10-31T12:36:51;22.15;;;15.50;;
80111;SDS011;69421;51.062;3.728;2023-10-31T12:39:18;27.75;;;24.85;;
80111;SDS011;69421;51.062;3.728;2023-10-31T12:44:12;17.30;;;9.67;;
80111;SDS011;69421;51.062;3.728;2023-10-31T12:46:41;18.20;;;10.43;;
80111;SDS011;69421;51.062;3.728;2023-10-31T12:49:16;15.02;;;10.18;;
80111;SDS011;69421;51.062;3.728;2023-10-31T12:59:30;30.55;;;21.13;;
80111;SDS011;69421;51.062;3.728;2023-10-31T13:01:57;33.83;;;22.58;;
80111;SDS011;69421;51.062;3.728;2023-10-31T13:04:26;64.22;;;39.08;;
80111;SDS011;69421;51.062;3.728;2023-10-31T13:06:56;27.20;;;17.00;;
80111;SDS011;69421;51.062;3.728;2023-10-31T13:09:35;7.78;;;5.97;;
80111;SDS011;69421;51.062;3.728;2023-10-31T13:12:04;11.73;;;7.20;;
80111;SDS011;69421;51.062;3.728;2023-10-31T13:14:31;65.68;;;32.45;;
80111;SDS011;69421;51.062;3.728;2023-10-31T13:16:57;15.60;;;9.98;;
80111;SDS011;69421;51.062;3.728;2023-10-31T13:19:24;16.02;;;10.90;;
80111;SDS011;69421;51.062;3.728;2023-10-31T13:21:49;9.10;;;6.20;;
80111;SDS011;69421;51.062;3.728;2023-10-31T13:24:16;18.80;;;11.45;;
80111;SDS011;69421;51.062;3.728;2023-10-31T13:26:42;34.10;;;19.30;;
80111;SDS011;69421;51.062;3.728;2023-10-31T13:29:09;5.43;;;3.45;;
80111;SDS011;69421;51.062;3.728;2023-10-31T13:31:36;6.20;;;4.50;;
80111;SDS011;69421;51.062;3.728;2023-10-31T13:34:02;7.13;;;5.07;;
80111;SDS011;69421;51.062;3.728;2023-10-31T13:36:28;5.35;;;3.65;;
80111;SDS011;69421;51.062;3.728;2023-10-31T13:38:54;4.82;;;3.72;;
80111;SDS011;69421;51.062;3.728;2023-10-31T13:41:20;7.93;;;5.60;;
80111;SDS011;69421;51.062;3.728;2023-10-31T13:43:46;8.32;;;6.53;;
80111;SDS011;69421;51.062;3.728;2023-10-31T13:46:13;5.93;;;4.63;;
80111;SDS011;69421;51.062;3.728;2023-10-31T13:48:39;9.68;;;5.43;;
80111;SDS011;69421;51.062;3.728;2023-10-31T13:51:05;4.43;;;3.88;;
80111;SDS011;69421;51.062;3.728;2023-10-31T13:53:30;9.50;;;7.18;;
80111;SDS011;69421;51.062;3.728;2023-10-31T13:55:56;11.63;;;9.85;;
80111;SDS011;69421;51.062;3.728;2023-10-31T13:58:22;5.68;;;3.72;;
80111;SDS011;69421;51.062;3.728;2023-10-31T14:00:47;5.07;;;3.78;;
80111;SDS011;69421;51.062;3.728;2023-10-31T14:03:13;7.18;;;5.18;;
80111;SDS011;69421;51.062;3.728;2023-10-31T14:05:40;6.10;;;3.97;;
80111;SDS011;69421;51.062;3.728;2023-10-31T14:08:07;38.90;;;20.38;;
80111;SDS011;69421;51.062;3.728;2023-10-31T14:10:32;21.42;;;10.93;;
80111;SDS011;69421;51.062;3.728;2023-10-31T14:12:58;19.90;;;13.93;;
80111;SDS011;69421;51.062;3.728;2023-10-31T14:15:23;13.98;;;9.88;;
80111;SDS011;69421;51.062;3.728;2023-10-31T14:17:52;5.40;;;2.78;;
80111;SDS011;69421;51.062;3.728;2023-10-31T14:20:18;5.03;;;3.15;;
80111;SDS011;69421;51.062;3.728;2023-10-31T14:22:50;4.47;;;3.13;;
80111;SDS011;69421;51.062;3.728;2023-10-31T14:25:16;8.38;;;3.72;;
80111;SDS011;69421;51.062;3.728;2023-10-31T14:27:42;5.35;;;4.00;;
80111;SDS011;69421;51.062;3.728;2023-10-31T14:30:09;4.70;;;3.00;;
80111;SDS011;69421;51.062;3.728;2023-10-31T14:32:37;8.10;;;5.85;;
80111;SDS011;69421;51.062;3.728;2023-10-31T14:35:04;6.25;;;3.90;;
80111;SDS011;69421;51.062;3.728;2023-10-31T14:37:30;6.13;;;4.35;;
80111;SDS011;69421;51.062;3.728;2023-10-31T14:40:00;12.52;;;4.70;;